Time;durP1;ratioP1;P1;durP2;ratioP2;P2;SDS_P1;SDS_P2;PMS_P1;PMS_P2;Temp;Humidity;BMP_temperature;BMP_pressure;BME280_temperature;BME280_humidity;BME280_pressure;Samples;Min_cycle;Max_cycle;Signal;HPM_P1;HPM_P2
2024/03/03 00:02:12;;;;;;;8.40;2.88;;;21.40;99.90;;;;;;4935565;29;20139;-43
2024/03/03 00:04:38;;;;;;;4.47;1.80;;;21.40;99.90;;;;;;4935882;29;20034;-42
2024/03/03 00:07:04;;;;;;;3.28;1.98;;;21.40;99.90;;;;;;4935844;29;20038;-43
2024/03/03 00:09:31;;;;;;;4.60;1.80;;;21.40;99.90;;;;;;4935794;29;20023;-43
2024/03/03 00:11:57;;;;;;;3.88;1.98;;;21.40;99.90;;;;;;4935635;29;20519;-44
2024/03/03 00:14:23;;;;;;;3.85;1.90;;;21.40;99.90;;;;;;4935753;29;20063;-43
2024/03/03 00:16:50;;;;;;;4.53;2.10;;;21.40;99.90;;;;;;4935183;29;20028;-43
2024/03/03 00:19:16;;;;;;;3.58;1.80;;;21.40;99.90;;;;;;4935465;29;20405;-44
2024/03/03 00:21:42;;;;;;;3.80;2.13;;;21.40;99.90;;;;;;4935673;29;20059;-43
2024/03/03 00:24:08;;;;;;;4.63;1.77;;;21.40;99.90;;;;;;4935586;29;20059;-42
2024/03/03 00:26:34;;;;;;;2.47;1.42;;;21.40;99.90;;;;;;4918265;29;20083;-43
2024/03/03 00:29:00;;;;;;;2.53;1.83;;;21.40;99.90;;;;;;4918404;29;20457;-41
2024/03/03 00:31:26;;;;;;;3.72;1.55;;;21.40;99.90;;;;;;4918561;29;20054;-42
2024/03/03 00:33:53;;;;;;;3.55;1.83;;;21.40;99.90;;;;;;4935644;29;20354;-42
2024/03/03 00:36:19;;;;;;;3.70;1.88;;;21.30;99.90;;;;;;4935274;29;20511;-42
2024/03/03 00:38:44;;;;;;;4.30;1.90;;;21.30;99.90;;;;;;4935289;29;20028;-42
2024/03/03 00:41:11;;;;;;;3.42;2.00;;;21.30;99.90;;;;;;4935139;29;20051;-41
2024/03/03 00:43:37;;;;;;;3.05;1.70;;;21.30;99.90;;;;;;4935176;29;20115;-41
2024/03/03 00:46:04;;;;;;;4.20;1.83;;;21.30;99.90;;;;;;4918193;29;20030;-42
2024/03/03 00:48:30;;;;;;;4.35;1.30;;;21.30;99.90;;;;;;4935217;29;20110;-41
2024/03/03 00:50:55;;;;;;;5.78;2.17;;;21.30;99.90;;;;;;4935461;29;20135;-41
2024/03/03 00:53:22;;;;;;;3.53;1.77;;;21.30;99.90;;;;;;4935006;29;20039;-42
2024/03/03 00:55:51;;;;;;;4.32;1.98;;;21.30;99.90;;;;;;4935184;29;20023;-42
2024/03/03 00:58:18;;;;;;;3.15;1.52;;;21.30;99.90;;;;;;4935045;29;20028;-42
2024/03/03 01:00:44;;;;;;;4.05;1.85;;;21.30;99.90;;;;;;4934966;29;20039;-41
2024/03/03 01:03:10;;;;;;;3.33;1.70;;;21.20;99.90;;;;;;4934832;29;20059;-41
2024/03/03 01:05:36;;;;;;;3.25;1.80;;;21.20;99.90;;;;;;4934996;29;20020;-42
2024/03/03 01:08:02;;;;;;;3.42;1.75;;;21.20;99.90;;;;;;4935144;29;20369;-41
2024/03/03 01:10:29;;;;;;;3.67;1.98;;;21.20;99.90;;;;;;4935114;29;20087;-42
2024/03/03 01:12:56;;;;;;;4.65;2.05;;;21.20;99.90;;;;;;4935136;29;20062;-42
2024/03/03 01:15:22;;;;;;;3.03;1.67;;;21.20;99.90;;;;;;4917906;29;20035;-43
2024/03/03 01:17:48;;;;;;;3.40;1.90;;;21.20;99.90;;;;;;4934880;29;20035;-42
2024/03/03 01:20:13;;;;;;;3.35;1.70;;;21.20;99.90;;;;;;4934950;29;20019;-43
2024/03/03 01:22:40;;;;;;;3.55;1.70;;;21.20;99.90;;;;;;4934769;29;20489;-41
2024/03/03 01:25:07;;;;;;;3.92;2.08;;;21.10;99.90;;;;;;4934820;29;20102;-42
2024/03/03 01:27:33;;;;;;;2.80;1.42;;;21.10;99.90;;;;;;4934830;29;20028;-42
2024/03/03 01:30:00;;;;;;;2.47;1.70;;;21.10;99.90;;;;;;4936655;29;20032;-42
2024/03/03 01:32:27;;;;;;;2.95;1.98;;;21.10;99.90;;;;;;4921801;29;20118;-42
2024/03/03 01:34:54;;;;;;;4.32;2.13;;;21.10;99.90;;;;;;4938683;29;20035;-41
2024/03/03 01:37:20;;;;;;;3.13;2.03;;;21.10;99.90;;;;;;4938675;29;20019;-42
2024/03/03 01:39:46;;;;;;;2.50;1.60;;;21.10;99.90;;;;;;4938448;29;20262;-42
2024/03/03 01:42:12;;;;;;;2.50;1.40;;;21.10;99.90;;;;;;4938407;29;20028;-42
2024/03/03 01:44:38;;;;;;;4.32;1.40;;;21.10;99.90;;;;;;4938390;29;20157;-43
2024/03/03 01:47:04;;;;;;;2.35;1.60;;;21.10;99.90;;;;;;4921287;29;20114;-41
2024/03/03 01:49:33;;;;;;;2.00;1.17;;;21.10;99.90;;;;;;4938732;29;20480;-42
2024/03/03 01:52:01;;;;;;;3.47;1.63;;;21.10;99.90;;;;;;4921904;29;20035;-42
2024/03/03 01:54:27;;;;;;;3.60;1.60;;;21.00;99.90;;;;;;4956594;29;20032;-43
2024/03/03 01:56:55;;;;;;;2.45;1.50;;;21.00;99.90;;;;;;4956445;29;20065;-43
2024/03/03 01:59:21;;;;;;;3.58;1.52;;;21.00;99.90;;;;;;4939833;29;20027;-43
2024/03/03 02:01:48;;;;;;;4.93;1.50;;;21.00;99.90;;;;;;4967758;23;20056;-50
2024/03/03 02:04:15;;;;;;;2.07;1.40;;;21.00;99.90;;;;;;4956917;28;20027;-50
2024/03/03 02:06:42;;;;;;;1.90;1.07;;;21.00;99.90;;;;;;4956301;28;20281;-50
2024/03/03 02:09:10;;;;;;;3.10;1.63;;;21.00;99.90;;;;;;4954677;28;20333;-50
2024/03/03 02:11:36;;;;;;;1.88;1.05;;;21.00;99.90;;;;;;4955602;28;20054;-50
2024/03/03 02:14:02;;;;;;;3.35;1.40;;;21.00;99.90;;;;;;4955064;29;20059;-50
2024/03/03 02:16:28;;;;;;;3.55;1.80;;;21.00;99.90;;;;;;4955776;29;20034;-50
2024/03/03 02:18:54;;;;;;;3.15;1.23;;;21.00;99.90;;;;;;4954860;28;20031;-50
2024/03/03 02:21:24;;;;;;;3.65;1.45;;;21.00;99.90;;;;;;4956151;28;20107;-50
2024/03/03 02:23:50;;;;;;;2.60;1.13;;;21.00;99.90;;;;;;4954802;29;20447;-50
2024/03/03 02:26:20;;;;;;;1.75;1.38;;;21.00;99.90;;;;;;4939545;29;20081;-50
2024/03/03 02:28:47;;;;;;;2.05;1.23;;;21.00;99.90;;;;;;4939455;29;20033;-50
2024/03/03 02:31:13;;;;;;;3.50;1.90;;;21.00;99.90;;;;;;4956634;28;20028;-50
2024/03/03 02:33:39;;;;;;;3.03;1.17;;;20.90;99.90;;;;;;4956575;28;20038;-50
2024/03/03 02:36:05;;;;;;;1.98;1.33;;;20.90;99.90;;;;;;4955581;29;20035;-50
2024/03/03 02:38:30;;;;;;;2.22;1.30;;;20.90;99.90;;;;;;4956704;28;20171;-50
2024/03/03 02:40:56;;;;;;;2.72;0.98;;;20.90;99.90;;;;;;4956019;28;20557;-50
2024/03/03 02:43:22;;;;;;;2.10;1.40;;;20.90;99.90;;;;;;4956352;29;20487;-50
2024/03/03 02:45:48;;;;;;;2.92;1.58;;;20.90;99.90;;;;;;4956395;28;20023;-50
2024/03/03 02:48:13;;;;;;;3.13;1.55;;;20.90;99.90;;;;;;4956257;29;20114;-49
2024/03/03 02:50:39;;;;;;;2.55;1.77;;;20.90;99.90;;;;;;4956246;28;20063;-50
2024/03/03 02:53:05;;;;;;;2.53;1.20;;;20.90;99.90;;;;;;4939380;29;20034;-50
2024/03/03 02:55:31;;;;;;;3.10;1.65;;;20.90;99.90;;;;;;4956438;29;20023;-50
2024/03/03 02:57:57;;;;;;;1.85;1.15;;;20.90;99.90;;;;;;4956236;29;20062;-50
2024/03/03 03:02:51;;;;;;;2.88;1.52;;;20.90;99.90;;;;;;4935327;29;20079;-55
2024/03/03 03:05:17;;;;;;;2.45;1.48;;;20.90;99.90;;;;;;4936569;29;20063;-54
2024/03/03 03:07:43;;;;;;;4.85;1.90;;;20.80;99.90;;;;;;4931930;29;20020;-53
2024/03/03 03:10:09;;;;;;;4.43;2.00;;;20.90;99.90;;;;;;4927628;29;20390;-53
2024/03/03 03:12:34;;;;;;;4.72;1.90;;;20.90;99.90;;;;;;4925712;29;20165;-53
2024/03/03 03:15:00;;;;;;;2.75;1.77;;;20.80;99.90;;;;;;4905959;29;20497;-55
2024/03/03 03:17:26;;;;;;;10.50;2.80;;;20.80;99.90;;;;;;4917271;29;20028;-55
2024/03/03 03:19:52;;;;;;;4.47;2.35;;;20.80;99.90;;;;;;4917239;29;20152;-55
2024/03/03 03:22:17;;;;;;;3.72;1.98;;;20.80;99.90;;;;;;4926965;29;20048;-55
2024/03/03 03:24:43;;;;;;;5.47;2.72;;;20.80;99.90;;;;;;4925301;29;20493;-55
2024/03/03 03:27:09;;;;;;;8.43;2.80;;;20.80;99.90;;;;;;4926914;29;20034;-55
2024/03/03 03:29:35;;;;;;;4.97;2.65;;;20.80;99.90;;;;;;4927901;29;20027;-55
2024/03/03 03:32:00;;;;;;;6.70;3.08;;;20.80;99.90;;;;;;4925112;29;20030;-55
2024/03/03 03:34:26;;;;;;;4.63;2.67;;;20.80;99.90;;;;;;4927117;29;20083;-55
2024/03/03 03:36:52;;;;;;;10.40;3.03;;;20.80;99.90;;;;;;4925862;29;20047;-55
2024/03/03 03:39:19;;;;;;;6.30;2.80;;;20.80;99.90;;;;;;4925886;29;20051;-55
2024/03/03 03:41:48;;;;;;;7.30;2.57;;;20.80;99.90;;;;;;4924399;29;20181;-55
2024/03/03 03:44:17;;;;;;;6.50;3.20;;;20.80;99.90;;;;;;4927484;29;20071;-55
2024/03/03 03:46:43;;;;;;;4.93;2.42;;;20.80;99.90;;;;;;4930583;29;20028;-55
2024/03/03 03:49:10;;;;;;;6.55;2.83;;;20.70;99.90;;;;;;4936294;29;20035;-55
2024/03/03 03:51:36;;;;;;;5.47;2.92;;;20.70;99.90;;;;;;4918174;29;20026;-56
2024/03/03 03:54:03;;;;;;;7.70;2.92;;;20.70;99.90;;;;;;4935771;29;20031;-55
2024/03/03 03:56:39;;;;;;;5.85;2.70;;;20.70;99.90;;;;;;4918684;29;20284;-55
2024/03/03 03:59:04;;;;;;;6.13;3.05;;;20.70;99.90;;;;;;4935913;29;20028;-56
2024/03/03 04:01:30;;;;;;;8.35;3.83;;;20.70;99.90;;;;;;4947854;23;20583;-41
2024/03/03 04:03:57;;;;;;;6.05;2.97;;;20.70;99.90;;;;;;4935819;29;20043;-41
2024/03/03 04:06:27;;;;;;;6.85;3.00;;;20.70;99.90;;;;;;4935767;29;20024;-43
2024/03/03 04:08:54;;;;;;;6.45;3.05;;;20.70;99.90;;;;;;4918845;29;20034;-41
2024/03/03 04:11:20;;;;;;;5.10;3.00;;;20.70;99.90;;;;;;4935852;29;20476;-41
2024/03/03 04:13:52;;;;;;;5.60;3.25;;;20.70;99.90;;;;;;4935827;29;20472;-41
2024/03/03 04:16:18;;;;;;;7.90;3.20;;;20.70;99.90;;;;;;4935516;29;20124;-42
2024/03/03 04:18:44;;;;;;;5.28;2.80;;;20.70;99.90;;;;;;4935504;29;20037;-42
2024/03/03 04:21:10;;;;;;;8.20;3.35;;;20.70;99.90;;;;;;4935813;29;20164;-42
2024/03/03 04:23:39;;;;;;;5.55;2.80;;;20.70;99.90;;;;;;4935668;29;20528;-42
2024/03/03 04:26:05;;;;;;;5.75;3.20;;;20.70;99.90;;;;;;4918411;29;20518;-42
2024/03/03 04:28:31;;;;;;;6.15;3.25;;;20.70;99.90;;;;;;4935484;29;20031;-42
2024/03/03 04:30:57;;;;;;;6.80;3.10;;;20.60;99.90;;;;;;4935388;29;20480;-42
2024/03/03 04:33:23;;;;;;;8.65;3.55;;;20.60;99.90;;;;;;4935572;29;20032;-42
2024/03/03 04:35:49;;;;;;;5.40;3.50;;;20.60;99.90;;;;;;4935369;29;20052;-42
2024/03/03 04:38:14;;;;;;;5.57;3.20;;;20.60;99.90;;;;;;4918465;29;20068;-43
2024/03/03 04:40:43;;;;;;;6.10;3.00;;;20.60;99.90;;;;;;4935539;29;20099;-42
2024/03/03 04:43:10;;;;;;;6.40;3.22;;;20.60;99.90;;;;;;4935112;29;20059;-42
2024/03/03 04:45:36;;;;;;;4.55;2.58;;;20.60;99.90;;;;;;4935219;29;20022;-42
2024/03/03 04:48:02;;;;;;;5.13;2.22;;;20.50;99.90;;;;;;4918393;29;20393;-42
2024/03/03 04:50:28;;;;;;;7.93;3.67;;;20.50;99.90;;;;;;4934997;29;20031;-42
2024/03/03 04:52:54;;;;;;;4.88;3.30;;;20.60;99.90;;;;;;4913189;29;20040;-43
2024/03/03 04:55:20;;;;;;;7.70;3.00;;;20.50;99.90;;;;;;4915831;29;20075;-42
2024/03/03 04:57:45;;;;;;;5.35;2.53;;;20.50;99.90;;;;;;4914924;29;20111;-42
2024/03/03 05:00:11;;;;;;;7.88;3.15;;;20.50;99.90;;;;;;4916337;29;20109;-42
2024/03/03 05:02:38;;;;;;;6.25;2.88;;;20.50;99.90;;;;;;4915275;29;20083;-42
2024/03/03 05:05:05;;;;;;;5.60;2.53;;;20.50;99.90;;;;;;4914518;29;20051;-43
2024/03/03 05:07:32;;;;;;;6.55;3.17;;;20.50;99.90;;;;;;4916103;29;20107;-43
2024/03/03 05:09:58;;;;;;;5.80;3.00;;;20.50;99.90;;;;;;4915958;29;20091;-42
2024/03/03 05:12:23;;;;;;;4.90;2.50;;;20.40;99.90;;;;;;4915970;29;20099;-42
2024/03/03 05:14:49;;;;;;;6.13;3.15;;;20.40;99.90;;;;;;4916166;29;20113;-41
2024/03/03 05:17:15;;;;;;;4.30;2.75;;;20.40;99.90;;;;;;4916227;29;20040;-41
2024/03/03 05:19:41;;;;;;;9.18;2.92;;;20.40;99.90;;;;;;4915892;29;20032;-41
2024/03/03 05:22:07;;;;;;;3.75;2.60;;;20.50;99.90;;;;;;4915845;29;20032;-41
2024/03/03 05:24:33;;;;;;;4.30;2.90;;;20.40;99.90;;;;;;4915985;29;20028;-41
2024/03/03 05:26:59;;;;;;;4.30;2.60;;;20.40;99.90;;;;;;4915794;29;20032;-42
2024/03/03 05:29:26;;;;;;;5.05;2.58;;;20.40;99.90;;;;;;4915827;29;20043;-42
2024/03/03 05:31:52;;;;;;;4.93;2.50;;;20.40;99.90;;;;;;4914734;29;20024;-42
2024/03/03 05:34:18;;;;;;;6.43;2.53;;;20.40;99.90;;;;;;4916067;29;20111;-42
2024/03/03 05:36:45;;;;;;;3.85;2.33;;;20.40;99.90;;;;;;4883164;29;20056;-42
2024/03/03 05:39:12;;;;;;;4.53;1.90;;;20.40;99.90;;;;;;4914483;29;20032;-42
2024/03/03 05:41:39;;;;;;;5.35;2.60;;;20.40;99.90;;;;;;4898897;29;20095;-42
2024/03/03 05:44:07;;;;;;;4.50;2.47;;;20.30;99.90;;;;;;4898746;29;20370;-42
2024/03/03 05:46:36;;;;;;;;;;;20.40;99.90;;;;;;4914810;29;20055;-42
2024/03/03 05:49:02;;;;;;;4.15;2.38;;;20.30;99.90;;;;;;4915781;29;20319;-42
2024/03/03 05:51:28;;;;;;;6.18;2.90;;;20.30;99.90;;;;;;4915699;29;20016;-42
2024/03/03 05:53:54;;;;;;;6.35;2.47;;;20.30;99.90;;;;;;4916100;29;20080;-41
2024/03/03 05:56:20;;;;;;;4.45;2.20;;;20.30;99.90;;;;;;4915799;29;20377;-41
2024/03/03 05:58:46;;;;;;;4.55;2.70;;;20.30;99.90;;;;;;4915646;29;20032;-42
2024/03/03 06:01:12;;;;;;;5.07;2.47;;;20.30;99.90;;;;;;4915570;29;20095;-41
2024/03/03 06:03:39;;;;;;;5.95;2.53;;;20.20;99.90;;;;;;4915460;29;20127;-42
2024/03/03 06:06:06;;;;;;;3.92;2.33;;;20.20;99.90;;;;;;4914353;29;20130;-42
2024/03/03 06:08:32;;;;;;;7.00;2.10;;;20.20;99.90;;;;;;4914177;29;20115;-42
2024/03/03 06:10:58;;;;;;;5.10;1.85;;;20.20;99.90;;;;;;4914216;29;20127;-42
2024/03/03 06:13:24;;;;;;;4.28;2.05;;;20.20;99.90;;;;;;4915629;29;20028;-42
2024/03/03 06:15:50;;;;;;;5.00;2.72;;;20.20;99.90;;;;;;4916841;29;20024;-43
2024/03/03 06:18:15;;;;;;;4.22;2.03;;;20.20;99.90;;;;;;4918744;29;20036;-42
2024/03/03 06:20:42;;;;;;;5.05;1.85;;;20.20;99.90;;;;;;4918770;29;20473;-41
2024/03/03 06:23:07;;;;;;;4.97;2.45;;;20.20;99.90;;;;;;4918669;29;20113;-42
2024/03/03 06:25:33;;;;;;;4.25;2.03;;;20.20;99.90;;;;;;4918684;29;20028;-42
2024/03/03 06:27:59;;;;;;;4.25;1.83;;;20.20;99.90;;;;;;4918755;29;20032;-41
2024/03/03 06:30:25;;;;;;;5.43;2.25;;;20.20;99.90;;;;;;4918705;29;20028;-41
2024/03/03 06:32:51;;;;;;;4.28;2.28;;;20.10;99.90;;;;;;4918806;29;20077;-41
2024/03/03 06:35:17;;;;;;;5.18;2.03;;;20.20;99.90;;;;;;4918586;29;20405;-41
2024/03/03 06:37:44;;;;;;;3.35;1.90;;;20.10;99.90;;;;;;4918326;29;20028;-41
2024/03/03 06:40:10;;;;;;;3.05;1.58;;;20.10;99.90;;;;;;4918364;29;20024;-41
2024/03/03 06:42:39;;;;;;;4.13;2.10;;;20.10;99.90;;;;;;4901463;29;20131;-41
2024/03/03 06:45:06;;;;;;;3.83;2.05;;;20.10;99.90;;;;;;4918218;29;20410;-42
2024/03/03 06:47:32;;;;;;;4.05;1.75;;;20.10;99.90;;;;;;4918356;29;20025;-41
2024/03/03 06:49:59;;;;;;;4.43;2.30;;;20.10;99.90;;;;;;4918259;29;20038;-42
2024/03/03 06:52:25;;;;;;;3.47;1.85;;;20.10;99.90;;;;;;4918308;29;20056;-41
2024/03/03 06:54:51;;;;;;;3.50;2.17;;;20.10;99.90;;;;;;4918371;29;20389;-41
2024/03/03 06:57:17;;;;;;;4.18;2.60;;;20.10;99.90;;;;;;4918098;29;20032;-41
2024/03/03 06:59:43;;;;;;;2.78;1.58;;;20.00;99.90;;;;;;4918071;29;20107;-41
2024/03/03 07:02:09;;;;;;;3.83;2.30;;;20.00;99.90;;;;;;4911063;29;20147;-41
2024/03/03 07:04:35;;;;;;;3.65;1.83;;;20.00;99.90;;;;;;4917889;29;20392;-40
2024/03/03 07:07:02;;;;;;;2.65;1.52;;;20.00;99.90;;;;;;4917797;29;20036;-41
2024/03/03 07:09:28;;;;;;;4.60;1.83;;;20.00;99.90;;;;;;4932360;29;20038;-41
2024/03/03 07:11:55;;;;;;;3.17;1.48;;;20.00;99.90;;;;;;4932567;29;20362;-41
2024/03/03 07:14:22;;;;;;;6.07;1.90;;;20.00;99.90;;;;;;4917833;29;20036;-41
2024/03/03 07:16:48;;;;;;;3.20;1.90;;;20.00;99.90;;;;;;4917809;29;20522;-42
2024/03/03 07:19:14;;;;;;;4.70;2.22;;;20.00;99.90;;;;;;4917722;29;20035;-41
2024/03/03 07:21:40;;;;;;;3.28;1.92;;;20.00;99.90;;;;;;4917589;29;20020;-41
2024/03/03 07:24:06;;;;;;;4.18;2.38;;;20.00;99.90;;;;;;4900680;29;20503;-42
2024/03/03 07:26:31;;;;;;;3.92;2.15;;;20.00;99.90;;;;;;4917596;29;20028;-41
2024/03/03 07:28:57;;;;;;;4.10;2.22;;;20.00;99.90;;;;;;4917880;29;20055;-42
2024/03/03 07:31:23;;;;;;;3.33;2.47;;;20.00;99.90;;;;;;4917619;29;20354;-41
2024/03/03 07:33:49;;;;;;;3.90;2.30;;;20.00;99.90;;;;;;4917389;29;20051;-42
2024/03/03 07:36:15;;;;;;;3.30;2.00;;;20.00;99.90;;;;;;4917390;29;20028;-41
2024/03/03 07:38:40;;;;;;;4.63;2.45;;;20.00;99.90;;;;;;4917428;29;20028;-42
2024/03/03 07:41:06;;;;;;;3.70;2.28;;;20.00;99.90;;;;;;4917244;29;20025;-42
2024/03/03 07:43:32;;;;;;;3.97;2.30;;;20.00;99.90;;;;;;4917319;29;20389;-41
2024/03/03 07:45:58;;;;;;;5.05;2.33;;;20.10;99.90;;;;;;4917487;29;20024;-42
2024/03/03 07:48:25;;;;;;;4.72;2.30;;;20.10;99.90;;;;;;4917209;29;20047;-42
2024/03/03 07:50:50;;;;;;;3.88;2.50;;;20.10;99.90;;;;;;4917115;29;20079;-41
2024/03/03 07:53:17;;;;;;;3.15;2.00;;;20.10;99.90;;;;;;4931549;29;20481;-41
2024/03/03 07:55:43;;;;;;;3.58;2.58;;;20.10;99.90;;;;;;4917177;29;20032;-41
2024/03/03 07:58:09;;;;;;;4.40;2.42;;;20.20;99.90;;;;;;4931613;29;20055;-41
2024/03/03 08:00:35;;;;;;;4.30;2.72;;;20.10;99.90;;;;;;4916810;29;20063;-42
2024/03/03 08:03:05;;;;;;;4.30;2.35;;;20.20;99.90;;;;;;4917061;29;20418;-42
2024/03/03 08:05:32;;;;;;;3.72;2.72;;;20.20;99.90;;;;;;4916929;29;20066;-41
2024/03/03 08:07:58;;;;;;;5.45;2.70;;;20.20;99.90;;;;;;4917093;29;20105;-42
2024/03/03 08:10:24;;;;;;;3.60;2.10;;;20.20;99.90;;;;;;4916816;29;20027;-42
2024/03/03 08:12:50;;;;;;;4.63;2.83;;;20.20;99.90;;;;;;4916848;29;20024;-42
2024/03/03 08:15:16;;;;;;;4.50;2.40;;;20.20;99.90;;;;;;4899903;29;20021;-42
2024/03/03 08:17:43;;;;;;;3.55;2.50;;;20.20;99.90;;;;;;4884178;29;20029;-42
2024/03/03 08:20:10;;;;;;;4.05;2.50;;;20.30;99.90;;;;;;4916641;29;20036;-42
2024/03/03 08:22:40;;;;;;;;;;;20.30;99.90;;;;;;4915637;29;20043;-42
2024/03/03 08:25:08;;;;;;;4.43;2.35;;;20.30;99.90;;;;;;4916506;29;19915;-42
2024/03/03 08:27:34;;;;;;;4.25;2.97;;;20.40;99.90;;;;;;4916526;29;20477;-42
2024/03/03 08:30:00;;;;;;;6.03;2.75;;;20.30;99.90;;;;;;4916436;29;20038;-42
2024/03/03 08:32:26;;;;;;;3.75;2.78;;;20.40;99.90;;;;;;4916452;29;20377;-42
2024/03/03 08:34:52;;;;;;;2.78;2.17;;;20.40;99.90;;;;;;4916419;29;20031;-42
2024/03/03 08:37:18;;;;;;;4.18;2.40;;;20.40;99.90;;;;;;4916292;29;20107;-43
2024/03/03 08:39:43;;;;;;;2.97;2.30;;;20.40;99.90;;;;;;4915981;29;20059;-43
2024/03/03 08:42:09;;;;;;;4.28;2.53;;;20.40;99.90;;;;;;4916180;29;20057;-40
2024/03/03 08:44:35;;;;;;;3.78;2.42;;;20.40;99.90;;;;;;4916407;29;20056;-41
2024/03/03 08:47:01;;;;;;;5.40;2.80;;;20.40;99.90;;;;;;4916497;29;20050;-41
2024/03/03 08:49:26;;;;;;;4.57;2.25;;;20.40;99.90;;;;;;4916219;29;20036;-42
2024/03/03 08:51:52;;;;;;;2.85;1.90;;;20.50;99.90;;;;;;4916331;29;20099;-42
2024/03/03 08:54:18;;;;;;;6.32;2.35;;;20.50;99.90;;;;;;4916138;29;20552;-42
2024/03/03 08:56:44;;;;;;;2.90;2.03;;;20.50;99.90;;;;;;4914860;29;20417;-42
2024/03/03 08:59:10;;;;;;;3.58;1.95;;;20.50;99.90;;;;;;4916114;29;20035;-42
2024/03/03 09:01:39;;;;;;;3.83;2.00;;;20.50;99.90;;;;;;4915843;29;20079;-42
2024/03/03 09:04:05;;;;;;;2.80;1.88;;;20.60;99.90;;;;;;4916213;29;20036;-42
2024/03/03 09:06:30;;;;;;;3.42;2.00;;;20.60;99.90;;;;;;4916328;29;20500;-43
2024/03/03 09:08:56;;;;;;;3.53;2.25;;;20.60;99.90;;;;;;4916011;29;20028;-42
2024/03/03 09:11:22;;;;;;;3.78;1.90;;;20.60;99.90;;;;;;4916159;29;20024;-42
2024/03/03 09:13:48;;;;;;;4.82;2.13;;;20.60;99.90;;;;;;4916032;29;20029;-42
2024/03/03 09:16:13;;;;;;;4.40;2.05;;;20.60;99.90;;;;;;4899252;29;20397;-42
2024/03/03 09:18:39;;;;;;;4.80;2.10;;;20.70;99.90;;;;;;4914656;29;20043;-42
2024/03/03 09:21:09;;;;;;;3.42;2.40;;;20.70;99.90;;;;;;4916257;29;20031;-42
2024/03/03 09:23:35;;;;;;;4.80;1.85;;;20.70;99.90;;;;;;4914649;29;20039;-42
2024/03/03 09:26:01;;;;;;;3.33;1.98;;;20.70;99.90;;;;;;4898951;29;20032;-42
2024/03/03 09:28:28;;;;;;;4.40;1.85;;;20.70;99.90;;;;;;4915935;29;20031;-42
2024/03/03 09:30:54;;;;;;;3.17;2.08;;;20.70;99.90;;;;;;4915774;29;20091;-41
2024/03/03 09:33:20;;;;;;;3.97;1.90;;;20.70;99.90;;;;;;4915877;29;20036;-42
2024/03/03 09:35:46;;;;;;;3.42;2.10;;;20.80;99.90;;;;;;4914603;29;20035;-42
2024/03/03 09:38:12;;;;;;;3.50;1.83;;;20.80;99.90;;;;;;4916044;29;20021;-42
2024/03/03 09:40:38;;;;;;;3.70;2.28;;;20.80;99.90;;;;;;4915939;29;20445;-42
2024/03/03 09:43:06;;;;;;;5.28;1.90;;;20.80;99.90;;;;;;4915895;29;20032;-42
2024/03/03 09:45:32;;;;;;;3.33;1.85;;;20.80;99.90;;;;;;4915890;29;20095;-41
2024/03/03 09:48:01;;;;;;;2.03;1.55;;;20.90;99.90;;;;;;4914436;29;20119;-42
2024/03/03 09:50:27;;;;;;;2.20;1.70;;;20.90;99.90;;;;;;4916529;29;20107;-42
2024/03/03 09:52:56;;;;;;;4.38;2.50;;;20.90;99.90;;;;;;4919102;29;20035;-42
2024/03/03 09:55:24;;;;;;;3.67;2.33;;;20.90;99.90;;;;;;4919255;29;20124;-41
2024/03/03 09:57:50;;;;;;;4.35;2.05;;;21.00;99.90;;;;;;4919093;29;20016;-42
2024/03/03 10:00:17;;;;;;;4.10;1.98;;;21.00;99.90;;;;;;4919310;29;20031;-42
2024/03/03 10:02:43;;;;;;;3.45;2.28;;;21.00;99.90;;;;;;4919014;29;20405;-41
2024/03/03 10:05:10;;;;;;;2.40;2.15;;;21.00;99.90;;;;;;4919146;29;20504;-41
2024/03/03 10:07:40;;;;;;;5.85;2.20;;;21.00;99.90;;;;;;4919347;29;20024;-42
2024/03/03 10:10:09;;;;;;;4.53;1.58;;;21.10;99.90;;;;;;4919215;29;20055;-42
2024/03/03 10:12:35;;;;;;;2.92;2.03;;;21.10;99.90;;;;;;4917957;29;20031;-42
2024/03/03 10:15:04;;;;;;;4.40;2.28;;;21.20;99.90;;;;;;4918874;29;20499;-42
2024/03/03 10:17:30;;;;;;;4.47;2.30;;;21.20;99.90;;;;;;4918829;29;20028;-42
2024/03/03 10:20:06;;;;;;;4.03;2.20;;;21.20;99.90;;;;;;4918825;29;20035;-42
2024/03/03 10:22:33;;;;;;;3.80;1.85;;;21.20;99.90;;;;;;4918589;29;20028;-41
2024/03/03 10:25:12;;;;;;;8.63;1.95;;;21.30;99.90;;;;;;4918613;29;20027;-42
2024/03/03 10:27:44;;;;;;;3.15;2.08;;;21.30;99.90;;;;;;4919065;29;20445;-42
2024/03/03 10:30:12;;;;;;;3.17;1.80;;;21.40;99.90;;;;;;4918785;29;20028;-42
2024/03/03 10:32:42;;;;;;;5.50;2.45;;;21.40;99.90;;;;;;4918829;29;20028;-42
2024/03/03 10:35:12;;;;;;;3.60;1.58;;;21.50;99.90;;;;;;4918780;29;20036;-42
2024/03/03 10:38:01;;;;;;;4.53;1.98;;;21.50;99.90;;;;;;4917401;29;20024;-42
2024/03/03 10:40:32;;;;;;;5.80;1.88;;;21.50;99.90;;;;;;4918334;29;20024;-42
2024/03/03 10:42:58;;;;;;;4.70;1.98;;;21.60;99.90;;;;;;4918519;29;20123;-42
2024/03/03 10:45:24;;;;;;;3.70;2.05;;;21.60;99.90;;;;;;4918199;29;20153;-42
2024/03/03 10:47:50;;;;;;;3.72;2.08;;;21.70;99.90;;;;;;4918213;29;20024;-42
2024/03/03 10:50:21;;;;;;;2.65;1.83;;;21.70;99.90;;;;;;4918434;29;20027;-42
2024/03/03 10:52:51;;;;;;;5.10;2.10;;;21.80;99.90;;;;;;4918326;29;20028;-42
2024/03/03 10:55:17;;;;;;;7.63;2.50;;;21.80;99.90;;;;;;4918073;29;20084;-42
2024/03/03 10:57:44;;;;;;;4.10;2.08;;;21.90;99.90;;;;;;4918162;29;20028;-42
2024/03/03 11:00:14;;;;;;;4.83;1.50;;;21.90;99.90;;;;;;4918394;29;20429;-43
2024/03/03 11:02:44;;;;;;;5.05;1.50;;;21.90;99.90;;;;;;4917780;29;20048;-41
2024/03/03 11:05:13;;;;;;;3.90;1.80;;;21.90;99.90;;;;;;4918248;29;20365;-42
2024/03/03 11:07:39;;;;;;;5.80;2.33;;;22.00;99.90;;;;;;4901270;29;20114;-42
2024/03/03 11:10:05;;;;;;;4.38;1.58;;;22.00;99.90;;;;;;4917870;29;20152;-42
2024/03/03 11:12:36;;;;;;;5.70;2.15;;;22.10;99.90;;;;;;4916570;29;20481;-42
2024/03/03 11:15:04;;;;;;;4.57;1.80;;;22.10;99.90;;;;;;4917820;29;20024;-41
2024/03/03 11:17:33;;;;;;;3.22;1.60;;;22.10;99.90;;;;;;4917733;29;20036;-42
2024/03/03 11:20:03;;;;;;;2.30;1.50;;;22.10;99.90;;;;;;4917957;29;20028;-41
2024/03/03 11:22:35;;;;;;;1.95;1.42;;;22.10;99.90;;;;;;4917621;29;20032;-42
2024/03/03 11:25:09;;;;;;;3.35;1.60;;;22.20;99.90;;;;;;4916498;29;20059;-41
2024/03/03 11:27:41;;;;;;;3.70;1.70;;;22.20;99.90;;;;;;4917652;29;20581;-41
2024/03/03 11:30:10;;;;;;;2.92;1.70;;;22.20;99.90;;;;;;4917659;29;20055;-42
2024/03/03 11:32:39;;;;;;;4.10;1.92;;;22.20;99.90;;;;;;4917490;29;20047;-43
2024/03/03 11:35:06;;;;;;;2.58;1.58;;;22.30;99.90;;;;;;4917665;29;20059;-43
2024/03/03 11:37:32;;;;;;;1.65;1.15;;;22.30;99.90;;;;;;4900639;29;20401;-41
2024/03/03 11:40:03;;;;;;;4.18;1.40;;;22.30;99.90;;;;;;4917260;29;20032;-42
2024/03/03 11:42:34;;;;;;;2.63;1.30;;;22.40;99.90;;;;;;4917268;29;20032;-42
2024/03/03 11:45:02;;;;;;;4.72;1.60;;;22.40;99.90;;;;;;4917314;29;20032;-42
2024/03/03 11:47:46;;;;;;;2.15;1.10;;;22.40;99.90;;;;;;4917161;29;20060;-43
2024/03/03 11:50:19;;;;;;;3.45;1.75;;;22.40;99.90;;;;;;4917404;29;20044;-42
2024/03/03 11:52:47;;;;;;;5.43;1.75;;;22.50;99.90;;;;;;4917326;29;20036;-42
2024/03/03 11:55:27;;;;;;;3.97;1.52;;;22.50;99.90;;;;;;4916005;29;20029;-42
2024/03/03 11:58:01;;;;;;;2.63;1.30;;;22.50;99.90;;;;;;4917070;29;20055;-42
2024/03/03 12:00:30;;;;;;;3.47;1.30;;;22.60;99.90;;;;;;4917075;29;20048;-42
2024/03/03 12:02:58;;;;;;;2.03;1.25;;;22.60;99.90;;;;;;4900076;29;20096;-43
2024/03/03 12:05:24;;;;;;;;;;;22.60;99.90;;;;;;4917260;29;20028;-42
2024/03/03 12:07:54;;;;;;;2.90;1.13;;;22.70;99.90;;;;;;4916981;29;19911;-42
2024/03/03 12:10:25;;;;;;;2.92;1.35;;;22.70;99.90;;;;;;4916829;29;20370;-43
2024/03/03 12:12:53;;;;;;;4.03;1.70;;;22.70;99.90;;;;;;4916042;29;20039;-43
2024/03/03 12:15:22;;;;;;;5.45;1.48;;;22.80;99.90;;;;;;4916495;29;20021;-42
2024/03/03 12:17:50;;;;;;;3.60;1.50;;;22.80;99.90;;;;;;4916576;29;20035;-42
2024/03/03 12:20:21;;;;;;;5.32;1.40;;;22.80;99.90;;;;;;4916899;29;20016;-41
2024/03/03 12:22:49;;;;;;;4.88;1.73;;;22.80;99.90;;;;;;4916682;29;20028;-41
2024/03/03 12:25:17;;;;;;;3.45;1.60;;;22.80;99.90;;;;;;4916939;29;20477;-41
2024/03/03 12:27:57;;;;;;;4.65;1.45;;;22.90;99.90;;;;;;4916670;29;20162;-41
2024/03/03 12:30:32;;;;;;;1.73;1.15;;;22.90;99.90;;;;;;4916432;29;20516;-42
2024/03/03 12:33:00;;;;;;;3.10;1.40;;;22.90;99.90;;;;;;4916487;29;20036;-42
2024/03/03 12:35:26;;;;;;;4.95;1.52;;;22.90;99.90;;;;;;4916562;29;20020;-43
2024/03/03 12:37:53;;;;;;;5.03;1.80;;;22.90;99.90;;;;;;4916370;29;20469;-43
2024/03/03 12:40:19;;;;;;;2.55;1.50;;;23.00;99.90;;;;;;4915058;29;20045;-42
2024/03/03 12:42:50;;;;;;;3.90;1.52;;;23.00;99.90;;;;;;4916409;29;20032;-42
2024/03/03 12:45:17;;;;;;;4.15;1.75;;;23.00;99.90;;;;;;4916505;29;20032;-42
2024/03/03 12:47:43;;;;;;;3.00;1.10;;;23.10;99.90;;;;;;4916272;29;20021;-42
2024/03/03 12:50:18;;;;;;;2.60;1.27;;;23.10;99.90;;;;;;4929341;29;20124;-41